Time;durP1;ratioP1;P1;durP2;ratioP2;P2;SDS_P1;SDS_P2;PMS_P1;PMS_P2;Temp;Humidity;BMP_temperature;BMP_pressure;BME280_temperature;BME280_humidity;BME280_pressure;Samples;Min_cycle;Max_cycle;Signal;HPM_P1;HPM_P2
2023/12/28 00:02:23;;;;;;;1.98;0.60;;;;;;;-1.87;100.00;100400.38;5038824;28;20037;-69
2023/12/28 00:04:49;;;;;;;2.97;0.77;;;;;;;-1.86;100.00;100380.94;5056170;28;20499;-68
2023/12/28 00:07:14;;;;;;;2.28;0.52;;;;;;;-1.84;100.00;100373.75;5055735;28;20033;-71
2023/12/28 00:09:39;;;;;;;3.20;0.60;;;;;;;-1.82;100.00;100377.06;5073393;28;20559;-69
2023/12/28 00:12:05;;;;;;;1.25;0.40;;;;;;;-1.84;100.00;100361.38;5055274;28;20040;-69
2023/12/28 00:14:31;;;;;;;1.42;0.40;;;;;;;-1.92;100.00;100327.78;5054879;28;20032;-69
2023/12/28 00:16:56;;;;;;;2.67;0.35;;;;;;;-1.82;100.00;100334.88;5043878;28;20037;-68
2023/12/28 00:19:21;;;;;;;2.10;0.47;;;;;;;-1.77;100.00;100327.41;5073164;28;20017;-69
2023/12/28 00:21:47;;;;;;;1.58;0.70;;;;;;;-1.75;100.00;100325.50;5071987;28;20056;-69
2023/12/28 00:24:12;;;;;;;1.75;0.30;;;;;;;-1.77;100.00;100317.69;5073241;28;20024;-69
2023/12/28 00:26:37;;;;;;;4.25;0.75;;;;;;;-1.76;100.00;100297.44;5072868;28;20040;-69
2023/12/28 00:29:03;;;;;;;1.55;0.40;;;;;;;-1.73;100.00;100283.97;5072675;28;20112;-69
2023/12/28 00:31:28;;;;;;;3.47;0.60;;;;;;;-1.76;100.00;100263.97;5054890;28;20033;-68
2023/12/28 00:33:53;;;;;;;4.07;0.60;;;;;;;-1.75;100.00;100246.38;5072887;28;20380;-69
2023/12/28 00:36:20;;;;;;;1.67;0.52;;;;;;;-1.73;100.00;100241.78;5072735;28;20543;-69
2023/12/28 00:38:45;;;;;;;2.03;0.55;;;;;;;-1.66;100.00;100229.72;5072805;28;20025;-69
2023/12/28 00:41:11;;;;;;;1.80;0.55;;;;;;;-1.68;100.00;100226.41;5054374;28;20379;-68
2023/12/28 00:43:36;;;;;;;1.73;0.40;;;;;;;-1.88;100.00;100166.66;5072964;28;20060;-70
2023/12/28 00:46:02;;;;;;;2.80;0.68;;;;;;;-1.60;100.00;100201.97;5072686;28;20032;-69
2023/12/28 00:48:27;;;;;;;0.55;0.30;;;;;;;-1.55;100.00;100194.50;5072685;28;20021;-68
2023/12/28 00:50:55;;;;;;;2.97;0.30;;;;;;;-1.66;100.00;100163.78;5038413;28;20437;-70
2023/12/28 00:53:20;;;;;;;1.40;0.40;;;;;;;-1.60;100.00;100165.88;5072644;28;20035;-69
2023/12/28 00:55:45;;;;;;;1.17;0.40;;;;;;;-1.47;100.00;100161.16;5072622;28;20032;-68
2023/12/28 00:58:11;;;;;;;1.25;0.50;;;;;;;-1.44;100.00;100155.63;5072409;28;20020;-69
2023/12/28 01:00:36;;;;;;;1.08;0.47;;;;;;;-1.39;100.00;100149.09;5072319;28;20070;-69
2023/12/28 01:03:02;;;;;;;1.48;0.52;;;;;;;-1.35;100.00;100148.69;5072327;28;20032;-69
2023/12/28 01:05:28;;;;;;;0.90;0.30;;;;;;;-1.31;100.00;100130.78;5072423;28;20024;-68
2023/12/28 01:07:53;;;;;;;1.60;0.50;;;;;;;-1.26;100.00;100128.53;5054533;28;20113;-68
2023/12/28 01:10:19;;;;;;;2.33;0.50;;;;;;;-1.28;100.00;100122.56;5072226;28;20116;-69
2023/12/28 01:12:44;;;;;;;0.93;0.38;;;;;;;-1.29;100.00;100090.06;5054139;28;20313;-68
2023/12/28 01:15:10;;;;;;;0.68;0.20;;;;;;;-1.47;100.00;100057.44;5072068;28;20062;-68
2023/12/28 01:17:37;;;;;;;2.50;0.40;;;;;;;-1.19;100.00;100074.22;5053837;28;20506;-68
2023/12/28 01:20:03;;;;;;;0.52;0.25;;;;;;;-1.20;100.00;100067.25;5037326;28;20024;-68
2023/12/28 01:22:29;;;;;;;1.95;0.47;;;;;;;-1.21;100.00;100049.78;5071877;28;20059;-70
2023/12/28 01:24:54;;;;;;;1.27;0.50;;;;;;;-1.20;100.00;100057.53;5071773;28;20694;-68
2023/12/28 01:27:20;;;;;;;1.30;0.40;;;;;;;-1.20;100.00;100022.38;5053439;28;20025;-68
2023/12/28 01:29:45;;;;;;;1.17;0.40;;;;;;;-1.27;100.00;100003.66;5071546;28;20464;-67
2023/12/28 01:32:10;;;;;;;2.10;0.63;;;;;;;-1.24;100.00;99999.91;5053438;28;20036;-68
2023/12/28 01:34:36;;;;;;;0.32;0.20;;;;;;;-1.37;100.00;99971.19;5036851;28;20032;-68
2023/12/28 01:37:01;;;;;;;1.02;0.30;;;;;;;-1.34;100.00;99954.22;5071385;28;20488;-70
2023/12/28 01:39:26;;;;;;;2.03;0.43;;;;;;;-1.19;100.00;99979.19;5071137;28;20082;-68
2023/12/28 01:41:52;;;;;;;1.50;0.32;;;;;;;-1.11;100.00;99981.13;5036383;28;20095;-67
2023/12/28 01:44:18;;;;;;;1.77;0.30;;;;;;;-1.12;100.00;99967.09;5053758;28;20051;-67
2023/12/28 01:46:43;;;;;;;2.28;0.60;;;;;;;-1.09;100.00;99953.59;5053704;28;20023;-67
2023/12/28 01:49:09;;;;;;;1.27;0.40;;;;;;;-1.06;100.00;99940.09;5071095;28;20028;-68
2023/12/28 01:51:36;;;;;;;3.85;0.40;;;;;;;-1.01;100.00;99923.81;5053544;28;20044;-68
2023/12/28 01:54:02;;;;;;;1.25;0.10;;;;;;;-1.19;100.00;99886.81;5053270;28;20480;-67
2023/12/28 01:56:27;;;;;;;0.60;0.30;;;;;;;-0.94;100.00;99893.19;5053533;28;20032;-67
2023/12/28 01:58:53;;;;;;;0.40;0.22;;;;;;;-0.90;100.00;99905.13;5072222;28;20031;-66
2023/12/28 02:01:19;;;;;;;0.70;0.30;;;;;;;-1.05;100.00;99859.91;5073441;28;20028;-67
2023/12/28 02:03:45;;;;;;;1.02;0.20;;;;;;;-2.08;100.00;99686.88;5073801;28;20029;-66
2023/12/28 02:06:13;;;;;;;0.50;0.20;;;;;;;-0.79;100.00;99864.50;5055831;28;20380;-67
2023/12/28 02:08:38;;;;;;;1.48;0.20;;;;;;;-0.77;100.00;99854.59;5072617;28;20032;-66
2023/12/28 02:11:04;;;;;;;0.70;0.30;;;;;;;-0.72;100.00;99834.69;5073058;28;20123;-66
2023/12/28 02:13:29;;;;;;;1.80;0.20;;;;;;;-0.84;100.00;99803.34;5073005;28;20056;-67
2023/12/28 02:16:08;;;;;;;2.53;0.40;;;;;;;-0.74;100.00;99818.13;5073185;28;20029;-68
2023/12/28 02:18:39;;;;;;;0.40;0.20;;;;;;;-0.66;100.00;99792.78;5054858;28;20019;-69
2023/12/28 02:21:06;;;;;;;0.77;0.20;;;;;;;-0.81;100.00;99766.91;5055319;28;20052;-69
2023/12/28 02:23:34;;;;;;;1.70;0.40;;;;;;;-0.64;100.00;99786.38;5055158;28;20039;-68
2023/12/28 02:26:01;;;;;;;0.75;0.20;;;;;;;-0.61;100.00;99766.75;5073067;28;20111;-69
2023/12/28 02:28:26;;;;;;;1.20;0.20;;;;;;;-0.56;100.00;99770.59;5072740;28;20438;-67
2023/12/28 02:30:52;;;;;;;0.95;0.10;;;;;;;-0.68;100.00;99728.72;5072721;28;20070;-68
2023/12/28 02:33:33;;;;;;;0.93;0.10;;;;;;;-0.43;100.00;99745.56;5073250;28;20024;-68
2023/12/28 02:36:02;;;;;;;0.40;0.10;;;;;;;-0.36;100.00;99733.41;5074043;28;20031;-69
2023/12/28 02:38:30;;;;;;;0.70;0.10;;;;;;;-0.34;100.00;99732.25;5073273;28;20048;-68
2023/12/28 02:40:57;;;;;;;1.15;0.20;;;;;;;-0.52;100.00;99671.53;5054713;28;20025;-67
2023/12/28 02:43:23;;;;;;;0.15;0.10;;;;;;;-0.21;100.00;99696.66;5055596;28;20483;-68
2023/12/28 02:45:48;;;;;;;0.45;0.15;;;;;;;-0.38;100.00;99669.31;5055340;28;20033;-67
2023/12/28 02:48:13;;;;;;;0.52;0.10;;;;;;;-0.13;100.00;99715.19;5054663;28;20487;-67
2023/12/28 02:50:39;;;;;;;0.40;0.13;;;;;;;-0.17;100.00;99695.34;5073697;28;20115;-66
2023/12/28 02:53:05;;;;;;;0.50;0.20;;;;;;;-0.04;100.00;99687.81;5073091;28;20024;-67
2023/12/28 02:55:31;;;;;;;0.63;0.10;;;;;;;-0.03;100.00;99676.28;5037104;28;20475;-67
2023/12/28 02:57:59;;;;;;;0.10;0.00;;;;;;;-0.01;100.00;99677.75;5055134;28;20020;-67
2023/12/28 03:00:24;;;;;;;0.38;0.10;;;;;;;0.01;100.00;99682.06;5073255;28;20382;-66
2023/12/28 03:02:50;;;;;;;0.30;0.00;;;;;;;-0.03;100.00;99692.97;5072588;28;20108;-67
2023/12/28 03:05:15;;;;;;;1.38;0.10;;;;;;;0.04;100.00;99687.03;5056466;28;20486;-68
2023/12/28 03:07:42;;;;;;;1.85;0.20;;;;;;;0.01;100.00;99658.25;5074285;28;20403;-67
2023/12/28 03:10:08;;;;;;;0.45;0.20;;;;;;;0.09;100.00;99679.44;5074430;28;20405;-68
2023/12/28 03:12:33;;;;;;;1.95;0.20;;;;;;;-0.06;100.00;99661.53;5074064;28;20020;-68
2023/12/28 03:14:59;;;;;;;0.15;0.13;;;;;;;0.11;100.00;99685.41;5074331;28;20167;-67
2023/12/28 03:17:24;;;;;;;0.10;0.10;;;;;;;0.14;100.00;99683.28;5074102;28;20033;-68
2023/12/28 03:19:49;;;;;;;1.75;0.20;;;;;;;0.15;100.00;99682.28;5074124;28;20025;-67
2023/12/28 03:22:15;;;;;;;0.73;0.17;;;;;;;0.18;100.00;99668.72;5073679;28;20105;-68
2023/12/28 03:24:40;;;;;;;0.40;0.13;;;;;;;0.20;100.00;99656.19;5073794;28;20123;-67
2023/12/28 03:27:06;;;;;;;0.30;0.10;;;;;;;0.24;100.00;99661.97;5055831;28;20033;-66
2023/12/28 03:29:32;;;;;;;0.35;0.05;;;;;;;0.25;100.00;99646.94;5073800;28;20108;-67
2023/12/28 03:31:57;;;;;;;0.30;0.10;;;;;;;0.29;100.00;99638.50;5039199;28;20505;-67
2023/12/28 03:34:23;;;;;;;0.40;0.20;;;;;;;0.34;100.00;99624.81;5073840;28;20033;-67
2023/12/28 03:36:50;;;;;;;0.70;0.13;;;;;;;0.30;100.00;99607.56;5056144;28;20036;-67
2023/12/28 03:39:15;;;;;;;0.10;0.10;;;;;;;0.38;100.00;99616.38;5073598;28;20469;-68
2023/12/28 03:41:40;;;;;;;0.60;0.10;;;;;;;0.43;100.00;99611.44;5055634;28;20104;-67
2023/12/28 03:44:06;;;;;;;0.95;0.10;;;;;;;0.45;100.00;99606.78;5055747;28;20041;-67
2023/12/28 03:46:31;;;;;;;0.40;0.10;;;;;;;0.50;100.00;99610.75;5055727;28;20028;-68
2023/12/28 03:48:56;;;;;;;1.65;0.10;;;;;;;0.51;100.00;99607.13;5073666;28;20067;-67
2023/12/28 03:51:22;;;;;;;0.35;0.03;;;;;;;0.58;100.00;99610.78;5055665;28;20115;-67
2023/12/28 03:53:47;;;;;;;0.25;0.10;;;;;;;0.44;100.00;99583.16;5073294;28;20067;-67
2023/12/28 03:56:20;;;;;;;0.57;0.20;;;;;;;0.60;100.00;99596.41;5073379;28;20040;-67
2023/12/28 03:58:46;;;;;;;0.55;0.20;;;;;;;0.64;100.00;99573.06;5073353;28;20025;-67
2023/12/28 04:01:11;;;;;;;0.90;0.20;;;;;;;0.67;100.00;99567.44;5073345;28;20039;-69
2023/12/28 04:03:36;;;;;;;1.75;0.30;;;;;;;0.69;100.00;99566.25;5055763;28;20506;-68
2023/12/28 04:06:02;;;;;;;0.20;0.10;;;;;;;0.72;100.00;99567.75;5038904;28;20032;-69
2023/12/28 04:08:27;;;;;;;1.45;0.28;;;;;;;0.79;100.00;99562.63;5072475;28;20025;-68
2023/12/28 04:10:53;;;;;;;0.77;0.10;;;;;;;0.82;100.00;99557.81;5038463;28;20420;-68
2023/12/28 04:13:18;;;;;;;1.50;0.20;;;;;;;0.86;100.00;99563.59;5054994;28;20437;-66
2023/12/28 04:15:43;;;;;;;1.23;0.20;;;;;;;0.87;100.00;99565.28;5054414;28;20028;-71
2023/12/28 04:18:10;;;;;;;1.20;0.20;;;;;;;0.92;100.00;99566.41;5038229;28;20091;-68
2023/12/28 04:20:36;;;;;;;0.68;0.22;;;;;;;0.98;100.00;99580.81;5054857;28;20115;-68
2023/12/28 04:23:02;;;;;;;2.75;0.30;;;;;;;0.90;100.00;99557.00;5072738;28;20020;-66
2023/12/28 04:25:27;;;;;;;0.95;0.20;;;;;;;1.05;100.00;99567.72;5054611;28;20396;-67
2023/12/28 04:27:52;;;;;;;0.40;0.30;;;;;;;1.07;100.00;99557.81;5054829;28;20035;-67
2023/12/28 04:30:18;;;;;;;1.65;0.35;;;;;;;0.92;100.00;99534.63;5072800;28;20028;-67
2023/12/28 04:32:43;;;;;;;1.25;0.40;;;;;;;1.13;100.00;99549.19;5055003;28;20050;-67
2023/12/28 04:35:09;;;;;;;1.98;0.50;;;;;;;1.12;100.00;99534.25;5073589;28;20033;-68
2023/12/28 04:37:35;;;;;;;2.03;0.35;;;;;;;1.19;100.00;99553.78;5073002;28;20024;-67
2023/12/28 04:40:00;;;;;;;1.83;0.50;;;;;;;1.21;100.00;99543.03;5072783;28;20499;-67
2023/12/28 04:42:26;;;;;;;0.93;0.40;;;;;;;1.22;100.00;99540.19;5072542;28;20056;-66
2023/12/28 04:44:51;;;;;;;3.95;0.60;;;;;;;1.21;100.00;99533.25;5038137;28;20055;-67
2023/12/28 04:47:17;;;;;;;2.38;0.45;;;;;;;1.29;100.00;99541.19;5054590;28;20387;-68
2023/12/28 04:49:42;;;;;;;2.88;0.50;;;;;;;1.31;100.00;99533.06;5054581;28;20387;-68
2023/12/28 04:52:07;;;;;;;3.65;0.65;;;;;;;0.87;100.00;99454.88;5054480;28;20028;-68
2023/12/28 04:54:34;;;;;;;2.75;1.30;;;;;;;1.39;100.00;99525.94;5072389;28;20040;-67
2023/12/28 04:56:59;;;;;;;2.45;0.60;;;;;;;1.43;100.00;99528.22;5037418;28;20040;-67
2023/12/28 04:59:25;;;;;;;5.78;0.95;;;;;;;1.48;100.00;99533.84;5072238;28;20028;-67
2023/12/28 05:01:50;;;;;;;3.92;1.00;;;;;;;1.45;100.00;99516.44;5053888;28;20036;-68
2023/12/28 05:04:16;;;;;;;3.70;1.05;;;;;;;1.52;100.00;99521.88;5071632;28;20115;-69
2023/12/28 05:06:41;;;;;;;3.65;1.25;;;;;;;1.54;100.00;99514.59;5072924;28;20031;-69
2023/12/28 05:09:06;;;;;;;5.85;1.40;;;;;;;1.59;100.00;99514.88;5078739;28;20032;-69
2023/12/28 05:11:32;;;;;;;12.40;1.40;;;;;;;1.62;100.00;99503.94;5060779;28;20032;-70
2023/12/28 05:13:57;;;;;;;11.82;1.40;;;;;;;1.67;100.00;99491.00;5039499;28;20024;-69
2023/12/28 05:16:22;;;;;;;14.85;2.20;;;;;;;1.75;100.00;99482.16;5053990;28;20036;-68
2023/12/28 05:18:48;;;;;;;15.45;2.47;;;;;;;1.82;100.00;99481.31;5037425;28;20025;-68
2023/12/28 05:21:13;;;;;;;19.17;2.80;;;;;;;1.75;100.00;99459.13;5071619;28;20085;-68
2023/12/28 05:23:39;;;;;;;18.77;2.85;;;;;;;1.93;100.00;99473.94;5054139;28;20058;-68
2023/12/28 05:26:06;;;;;;;20.35;3.00;;;;;;;2.00;100.00;99469.59;5072073;28;20032;-68
2023/12/28 05:28:32;;;;;;;15.18;3.53;;;;;;;2.07;100.00;99473.19;5071019;28;20028;-68
2023/12/28 05:30:58;;;;;;;29.42;3.78;;;;;;;2.13;100.00;99445.94;5054175;28;20036;-68
2023/12/28 05:33:27;;;;;;;30.58;5.25;;;;;;;2.26;100.00;99451.47;5053868;28;20173;-68
2023/12/28 05:35:52;;;;;;;32.42;5.03;;;;;;;2.35;100.00;99437.13;5054125;28;20107;-68
2023/12/28 05:38:18;;;;;;;36.75;5.50;;;;;;;2.47;100.00;99442.81;5037337;28;20082;-68
2023/12/28 05:40:44;;;;;;;31.38;5.30;;;;;;;2.55;100.00;99444.56;5070799;28;20056;-67
2023/12/28 05:43:10;;;;;;;45.60;6.15;;;;;;;2.64;100.00;99445.31;5071779;28;20056;-69
2023/12/28 05:45:35;;;;;;;41.58;6.55;;;;;;;2.72;100.00;99447.91;5071676;28;20480;-69
2023/12/28 05:48:01;;;;;;;49.83;6.80;;;;;;;2.81;100.00;99458.28;5053417;28;20070;-69
2023/12/28 05:50:26;;;;;;;44.75;7.07;;;;;;;2.85;100.00;99452.56;5053587;28;20032;-68
2023/12/28 05:52:52;;;;;;;45.42;6.88;;;;;;;2.77;100.00;99438.38;5053294;28;20039;-68
2023/12/28 05:55:17;;;;;;;52.63;7.05;;;;;;;2.96;100.00;99452.13;5053234;28;20513;-68
2023/12/28 05:57:43;;;;;;;53.28;7.38;;;;;;;2.94;100.00;99431.03;5070964;28;20115;-68
2023/12/28 06:00:09;;;;;;;41.65;6.57;;;;;;;3.12;100.00;99441.31;5053737;28;20471;-68
2023/12/28 06:02:35;;;;;;;58.55;6.90;;;;;;;3.29;100.00;99436.63;5053317;28;20490;-69
2023/12/28 06:05:00;;;;;;;44.58;6.25;;;;;;;3.43;100.00;99433.09;5071124;28;20085;-69
2023/12/28 06:07:26;;;;;;;54.10;7.05;;;;;;;3.57;100.00;99420.78;5052826;28;20082;-69
2023/12/28 06:09:51;;;;;;;49.63;6.47;;;;;;;3.67;100.00;99423.13;5053157;28;20555;-69
2023/12/28 06:12:16;;;;;;;51.45;7.10;;;;;;;3.66;100.00;99409.00;5052848;28;20518;-69
2023/12/28 06:14:42;;;;;;;61.10;7.18;;;;;;;3.75;100.00;99415.88;5053174;28;20055;-69
2023/12/28 06:17:07;;;;;;;60.05;7.18;;;;;;;3.83;100.00;99430.06;5071043;28;20491;-69
2023/12/28 06:19:33;;;;;;;56.92;7.68;;;;;;;3.88;100.00;99411.72;5071300;28;20039;-69
2023/12/28 06:21:58;;;;;;;50.50;6.60;;;;;;;3.91;100.00;99411.31;5071056;28;20491;-69
2023/12/28 06:24:24;;;;;;;51.22;6.68;;;;;;;3.89;100.00;99402.69;5071303;28;20082;-70
2023/12/28 06:26:50;;;;;;;66.45;7.03;;;;;;;3.89;100.00;99397.38;5052795;28;20046;-70
2023/12/28 06:29:16;;;;;;;46.20;7.32;;;;;;;3.88;100.00;99396.56;5052986;28;20491;-70
2023/12/28 06:31:41;;;;;;;50.40;6.85;;;;;;;3.84;100.00;99378.47;5071197;28;20032;-69
2023/12/28 06:34:07;;;;;;;50.58;6.78;;;;;;;3.76;100.00;99366.97;5070780;28;20041;-69
2023/12/28 06:36:32;;;;;;;56.33;7.03;;;;;;;3.75;100.00;99362.66;5071007;28;20059;-70
2023/12/28 06:38:58;;;;;;;51.83;7.25;;;;;;;3.95;100.00;99376.16;5070391;28;20258;-70
2023/12/28 06:41:25;;;;;;;55.10;7.38;;;;;;;4.01;100.00;99387.88;5049343;28;20048;-70
2023/12/28 06:43:50;;;;;;;45.03;6.13;;;;;;;3.90;100.00;99359.91;5049624;28;20021;-70
2023/12/28 06:46:17;;;;;;;57.28;7.07;;;;;;;4.05;100.00;99380.31;5049311;28;20032;-70
2023/12/28 06:48:43;;;;;;;47.25;6.43;;;;;;;4.11;100.00;99371.59;5050541;28;20108;-70
2023/12/28 06:51:09;;;;;;;43.90;6.47;;;;;;;4.11;100.00;99361.75;5050559;28;20526;-70
2023/12/28 06:53:34;;;;;;;51.58;7.50;;;;;;;4.22;100.00;99361.22;5032661;28;20511;-70
2023/12/28 06:56:00;;;;;;;52.13;6.88;;;;;;;4.23;100.00;99351.38;5032570;28;20041;-70
2023/12/28 06:58:25;;;;;;;67.95;8.45;;;;;;;4.21;100.00;99350.78;5050337;28;20036;-69
2023/12/28 07:00:50;;;;;;;56.00;6.72;;;;;;;4.21;100.00;99340.13;5050801;28;20033;-69
2023/12/28 07:03:16;;;;;;;40.13;6.88;;;;;;;4.12;100.00;99327.97;5065603;28;20112;-69
2023/12/28 07:05:41;;;;;;;56.05;6.65;;;;;;;4.24;100.00;99331.75;5049451;28;20029;-69
2023/12/28 07:08:07;;;;;;;61.65;7.57;;;;;;;4.24;100.00;99318.44;5050347;28;20056;-69
2023/12/28 07:10:32;;;;;;;47.80;6.40;;;;;;;4.28;100.00;99334.84;5050361;28;20033;-69
2023/12/28 07:12:58;;;;;;;44.97;6.63;;;;;;;4.31;100.00;99331.78;5025892;28;20045;-69
2023/12/28 07:15:23;;;;;;;60.65;6.63;;;;;;;4.31;100.00;99335.28;5010955;28;20099;-70
2023/12/28 07:17:48;;;;;;;48.85;6.25;;;;;;;4.35;100.00;99335.72;5009746;28;20033;-70
2023/12/28 07:20:14;;;;;;;59.85;7.00;;;;;;;4.31;100.00;99311.31;5009696;28;20664;-69
2023/12/28 07:22:39;;;;;;;45.53;6.13;;;;;;;4.39;100.00;99335.09;5010964;28;20381;-70
2023/12/28 07:25:06;;;;;;;49.92;7.63;;;;;;;4.38;100.00;99333.47;5011379;28;20061;-70
2023/12/28 07:27:32;;;;;;;49.15;6.45;;;;;;;4.41;100.00;99337.59;5009893;28;20113;-70
2023/12/28 07:29:57;;;;;;;56.22;7.00;;;;;;;4.44;100.00;99339.88;5009742;28;20048;-70
2023/12/28 07:32:25;;;;;;;47.05;6.47;;;;;;;4.47;100.00;99310.19;5010919;28;20030;-70
2023/12/28 07:34:54;;;;;;;61.75;7.32;;;;;;;4.48;100.00;99311.81;5009437;28;20436;-69
2023/12/28 07:37:19;;;;;;;46.85;6.63;;;;;;;4.49;100.00;99318.78;5009181;28;20034;-70
2023/12/28 07:39:45;;;;;;;48.30;7.18;;;;;;;4.49;100.00;99308.13;4993121;28;20124;-70
2023/12/28 07:42:10;;;;;;;55.53;7.47;;;;;;;4.37;100.00;99281.25;5036061;28;20049;-70
2023/12/28 07:44:36;;;;;;;47.08;6.38;;;;;;;4.52;100.00;99304.25;5032368;28;20231;-68
2023/12/28 07:47:01;;;;;;;50.25;7.40;;;;;;;4.52;100.00;99309.59;5031945;28;20461;-69
2023/12/28 07:49:27;;;;;;;61.67;7.63;;;;;;;4.52;100.00;99317.56;5031748;28;20029;-69
2023/12/28 07:51:52;;;;;;;58.47;6.70;;;;;;;4.51;100.00;99308.75;5052971;28;20071;-69
2023/12/28 07:54:18;;;;;;;58.25;7.63;;;;;;;4.47;100.00;99312.84;5053481;28;20029;-67
2023/12/28 07:56:43;;;;;;;48.72;7.30;;;;;;;4.46;100.00;99312.00;5019530;28;20064;-69
2023/12/28 07:59:09;;;;;;;48.78;6.88;;;;;;;4.50;100.00;99301.78;5054147;28;20446;-73
2023/12/28 08:01:35;;;;;;;56.05;7.82;;;;;;;4.52;100.00;99302.41;5020323;28;20401;-70
2023/12/28 08:04:01;;;;;;;53.22;7.47;;;;;;;4.50;100.00;99309.75;5036344;28;20029;-70
2023/12/28 08:06:27;;;;;;;54.47;7.20;;;;;;;4.49;100.00;99300.13;5036384;28;20025;-69
2023/12/28 08:08:53;;;;;;;58.45;7.35;;;;;;;4.49;100.00;99305.47;5035977;28;20078;-70
2023/12/28 08:11:19;;;;;;;45.42;6.32;;;;;;;4.47;100.00;99295.03;5035445;28;20032;-68
2023/12/28 08:13:46;;;;;;;58.17;6.38;;;;;;;4.40;100.00;99277.34;5063498;28;20037;-67
2023/12/28 08:16:12;;;;;;;57.30;6.50;;;;;;;4.49;100.00;99281.50;5055957;28;20050;-68
2023/12/28 08:18:37;;;;;;;54.05;6.60;;;;;;;4.52;100.00;99285.59;5055504;28;20033;-71
2023/12/28 08:21:02;;;;;;;51.60;7.50;;;;;;;4.56;100.00;99277.00;5073853;28;20024;-70
2023/12/28 08:23:28;;;;;;;49.50;6.05;;;;;;;4.59;100.00;99273.97;5054661;28;20127;-70
2023/12/28 08:25:53;;;;;;;44.22;6.50;;;;;;;4.64;100.00;99265.38;5073349;28;20028;-67
2023/12/28 08:28:19;;;;;;;50.10;6.13;;;;;;;4.70;100.00;99256.56;5038300;28;20033;-69
2023/12/28 08:30:44;;;;;;;60.00;6.50;;;;;;;4.70;100.00;99253.91;5021793;28;20572;-71
2023/12/28 08:33:09;;;;;;;49.42;5.85;;;;;;;4.74;100.00;99257.03;5054688;28;20458;-67
2023/12/28 08:35:35;;;;;;;44.78;5.50;;;;;;;4.70;100.00;99252.09;5072676;28;20020;-68
2023/12/28 08:38:00;;;;;;;54.55;6.32;;;;;;;4.68;100.00;99255.97;5055079;28;20020;-67
2023/12/28 08:40:26;;;;;;;51.33;7.18;;;;;;;4.69;100.00;99254.94;5063922;28;20080;-68
2023/12/28 08:42:51;;;;;;;47.38;6.57;;;;;;;4.72;100.00;99252.69;5078453;28;20060;-67
2023/12/28 08:45:16;;;;;;;52.22;6.13;;;;;;;4.74;100.00;99235.72;5073204;28;20459;-67
2023/12/28 08:47:42;;;;;;;44.95;6.50;;;;;;;4.75;100.00;99227.50;5054951;28;20052;-68
2023/12/28 08:50:07;;;;;;;42.90;6.43;;;;;;;4.75;100.00;99214.19;5072741;28;20024;-67
2023/12/28 08:52:33;;;;;;;56.63;6.50;;;;;;;4.74;100.00;99207.22;5072730;28;20112;-67
2023/12/28 08:54:59;;;;;;;50.67;5.38;;;;;;;4.71;100.00;99195.13;5057161;28;20046;-68
2023/12/28 08:57:24;;;;;;;47.05;5.88;;;;;;;4.71;100.00;99189.78;5074825;28;20041;-67
2023/12/28 08:59:51;;;;;;;66.93;5.95;;;;;;;4.71;100.00;99191.63;5072868;28;20435;-66
2023/12/28 09:02:16;;;;;;;48.35;5.30;;;;;;;4.71;100.00;99199.63;5037380;28;20035;-66
2023/12/28 09:04:41;;;;;;;47.70;5.22;;;;;;;4.73;100.00;99197.56;5038180;28;20024;-75
2023/12/28 09:07:07;;;;;;;40.85;5.63;;;;;;;4.76;100.00;99196.34;5072414;28;20159;-72
2023/12/28 09:09:32;;;;;;;47.67;5.70;;;;;;;4.76;100.00;99183.84;5054824;28;20032;-73
2023/12/28 09:11:57;;;;;;;42.08;5.45;;;;;;;4.77;100.00;99176.66;5054519;28;20032;-66
2023/12/28 09:14:23;;;;;;;60.78;6.38;;;;;;;4.81;100.00;99180.59;5053935;28;20031;-66
2023/12/28 09:16:48;;;;;;;56.55;6.32;;;;;;;4.83;100.00;99186.53;5072385;28;20066;-67
2023/12/28 09:19:14;;;;;;;55.08;6.07;;;;;;;4.82;100.00;99185.69;5071895;28;20039;-67
2023/12/28 09:21:41;;;;;;;39.65;5.68;;;;;;;4.94;100.00;99183.28;5038302;28;20417;-67
2023/12/28 09:24:07;;;;;;;55.63;6.38;;;;;;;4.97;100.00;99193.53;5072064;28;20055;-68
2023/12/28 09:26:33;;;;;;;51.13;5.80;;;;;;;4.98;100.00;99189.84;5037388;28;20805;-67
2023/12/28 09:28:58;;;;;;;41.58;6.25;;;;;;;4.85;100.00;99149.84;5071512;28;20025;-67
2023/12/28 09:31:24;;;;;;;42.47;5.10;;;;;;;5.04;100.00;99173.03;5071962;28;20138;-66
2023/12/28 09:33:49;;;;;;;39.65;5.45;;;;;;;5.10;100.00;99171.38;5037120;28;20406;-66
2023/12/28 09:36:16;;;;;;;39.60;5.07;;;;;;;5.15;100.00;99174.28;5053821;28;20494;-67
2023/12/28 09:38:42;;;;;;;26.70;5.07;;;;;;;5.20;100.00;99166.50;5053552;28;20074;-67
2023/12/28 09:41:18;;;;;;;37.97;5.18;;;;;;;4.80;100.00;99104.31;5071149;28;20135;-66
2023/12/28 09:43:55;;;;;;;25.50;4.78;;;;;;;5.27;100.00;99166.50;5053257;28;20028;-68
2023/12/28 09:46:21;;;;;;;30.55;3.92;;;;;;;5.30;100.00;99166.09;5071351;28;20020;-67
2023/12/28 09:48:48;;;;;;;37.45;4.60;;;;;;;5.29;100.00;99165.25;5071211;28;20036;-67
2023/12/28 09:51:13;;;;;;;27.25;4.70;;;;;;;5.27;100.00;99145.16;5071185;28;20047;-68
2023/12/28 09:53:39;;;;;;;27.95;4.10;;;;;;;5.37;100.00;99158.91;5052756;28;20025;-67
2023/12/28 09:56:05;;;;;;;29.58;3.67;;;;;;;5.46;100.00;99146.16;5053152;28;20040;-67
2023/12/28 09:58:34;;;;;;;29.05;4.13;;;;;;;5.32;100.00;99113.34;5071039;28;20029;-67
2023/12/28 10:01:01;;;;;;;25.30;3.53;;;;;;;5.51;100.00;99147.19;5053196;28;20024;-67
2023/12/28 10:03:26;;;;;;;23.63;3.97;;;;;;;5.47;100.00;99124.63;5070655;28;20040;-66
2023/12/28 10:05:52;;;;;;;34.92;4.68;;;;;;;5.55;100.00;99137.75;5036564;28;20560;-66
2023/12/28 10:08:17;;;;;;;33.97;4.40;;;;;;;5.50;100.00;99126.88;5070796;28;20059;-66
2023/12/28 10:10:50;;;;;;;35.92;4.75;;;;;;;5.58;100.00;99129.31;5036443;28;20035;-66
2023/12/28 10:13:18;;;;;;;39.35;5.57;;;;;;;5.59;100.00;99133.63;5036294;28;20036;-69
2023/12/28 10:15:44;;;;;;;39.10;4.90;;;;;;;5.54;100.00;99119.28;5071276;28;20032;-70
2023/12/28 10:18:11;;;;;;;43.28;5.50;;;;;;;5.59;100.00;99114.13;5070671;28;20016;-66
2023/12/28 10:20:37;;;;;;;38.40;5.28;;;;;;;5.58;100.00;99115.16;5036976;28;20039;-66
2023/12/28 10:23:03;;;;;;;50.33;6.10;;;;;;;5.49;100.00;99089.72;5070871;28;20032;-66
2023/12/28 10:25:30;;;;;;;54.05;6.57;;;;;;;5.58;100.00;99105.31;5070788;28;20105;-67
2023/12/28 10:27:55;;;;;;;43.05;5.55;;;;;;;5.57;100.00;99106.34;5071630;28;20075;-67
2023/12/28 10:30:21;;;;;;;51.05;6.57;;;;;;;5.59;100.00;99093.59;5036685;28;20561;-66
2023/12/28 10:32:47;;;;;;;45.95;5.70;;;;;;;5.47;100.00;99078.47;5052470;28;20051;-66
2023/12/28 10:35:12;;;;;;;44.58;6.18;;;;;;;5.62;100.00;99090.53;5070500;28;20094;-66
2023/12/28 10:37:42;;;;;;;47.80;5.75;;;;;;;5.64;100.00;99085.81;5070405;28;20422;-67
2023/12/28 10:40:13;;;;;;;50.80;6.28;;;;;;;5.73;100.00;99093.56;5052733;28;20025;-66
2023/12/28 10:42:53;;;;;;;49.47;6.40;;;;;;;5.73;100.00;99090.91;5052250;28;20044;-66
2023/12/28 10:45:23;;;;;;;50.10;6.90;;;;;;;5.76;100.00;99095.81;5070400;28;20039;-67
2023/12/28 10:48:12;;;;;;;53.10;6.28;;;;;;;5.76;100.00;99098.50;5051929;28;20024;-66
2023/12/28 10:50:51;;;;;;;61.00;7.68;;;;;;;5.77;100.00;99097.47;5062452;28;20044;-66
2023/12/28 10:53:33;;;;;;;64.35;7.53;;;;;;;5.78;100.00;99115.13;5052617;28;20032;-66
2023/12/28 10:56:26;;;;;;;56.45;6.35;;;;;;;5.78;100.00;99107.13;5070291;28;20458;-65
2023/12/28 10:59:01;;;;;;;51.10;6.70;;;;;;;5.70;100.00;99120.69;5070478;28;20036;-66
2023/12/28 11:01:35;;;;;;;58.42;6.50;;;;;;;5.71;100.00;99138.34;5052864;28;20029;-66
2023/12/28 11:04:28;;;;;;;36.95;5.07;;;;;;;5.61;100.00;99115.56;5072510;28;20433;-66
2023/12/28 11:06:55;;;;;;;54.33;6.10;;;;;;;5.81;100.00;99150.22;5072587;28;20088;-67
2023/12/28 11:09:22;;;;;;;50.83;5.13;;;;;;;5.80;100.00;99153.13;5070574;28;20052;-66
2023/12/28 11:11:50;;;;;;;41.60;4.78;;;;;;;5.66;100.00;99144.28;5052114;28;20047;-65
2023/12/28 11:14:17;;;;;;;30.20;3.38;;;;;;;5.71;100.00;99151.69;5052379;28;20044;-67
2023/12/28 11:16:43;;;;;;;29.30;3.25;;;;;;;5.70;100.00;99150.88;5070565;28;20024;-66
2023/12/28 11:19:10;;;;;;;29.17;3.00;;;;;;;5.65;100.00;99156.81;5070930;28;20027;-67
2023/12/28 11:21:36;;;;;;;22.83;3.08;;;;;;;5.68;100.00;99162.78;5070225;28;20101;-67
2023/12/28 11:24:03;;;;;;;23.88;3.53;;;;;;;5.64;100.00;99155.19;5053039;28;20079;-67